createdAt,value
2018-01-14T00:00:58.682Z,95.9
2018-01-14T00:02:00.081Z,95.9
2018-01-14T00:03:01.485Z,95.5
2018-01-14T00:04:03.175Z,95.6
2018-01-14T00:05:04.571Z,95.4
2018-01-14T00:06:06.261Z,95.7
2018-01-14T00:07:07.662Z,95.9
2018-01-14T00:08:09.343Z,96.0
2018-01-14T00:09:10.746Z,95.7
2018-01-14T00:10:12.428Z,96.0
2018-01-14T00:11:13.834Z,96.0
2018-01-14T00:12:15.513Z,96.1
2018-01-14T00:13:16.930Z,95.9
2018-01-14T00:14:18.598Z,95.8
2018-01-14T00:15:20.003Z,95.7
2018-01-14T00:16:21.682Z,95.7
2018-01-14T00:17:23.096Z,95.5
2018-01-14T00:18:24.770Z,96.0
2018-01-14T00:19:26.176Z,95.7
2018-01-14T00:20:27.582Z,95.7
2018-01-14T00:21:29.296Z,95.6
2018-01-14T00:22:30.744Z,95.7
2018-01-14T00:23:32.147Z,95.4
2018-01-14T00:24:33.822Z,95.4
2018-01-14T00:25:35.225Z,95.9
2018-01-14T00:26:36.906Z,95.7
2018-01-14T00:27:38.386Z,95.7
2018-01-14T00:28:40.007Z,95.7
2018-01-14T00:29:41.406Z,95.4
2018-01-14T00:30:43.082Z,95.5
2018-01-14T00:31:44.488Z,95.7
2018-01-14T00:32:46.167Z,95.5
2018-01-14T00:33:47.569Z,96.4
2018-01-14T00:34:49.254Z,96.3
2018-01-14T00:35:50.658Z,95.9
2018-01-14T00:36:52.335Z,96.6
2018-01-14T00:37:53.756Z,96.6
2018-01-14T00:38:55.426Z,96.9
2018-01-14T00:39:56.830Z,97.3
2018-01-14T00:40:58.244Z,97.8
2018-01-14T00:41:59.969Z,97.2
2018-01-14T00:43:01.376Z,97.8
2018-01-14T00:44:02.782Z,97.8
2018-01-14T00:45:04.473Z,97.6
2018-01-14T00:46:05.875Z,97.3
2018-01-14T00:47:07.281Z,97.7
2018-01-14T00:48:08.998Z,97.8
2018-01-14T00:49:10.403Z,97.8
2018-01-14T00:50:11.809Z,98.2
2018-01-14T00:51:13.525Z,98.5
2018-01-14T00:52:14.928Z,98.6
2018-01-14T00:53:16.329Z,98.2
2018-01-14T00:54:17.848Z,98.3
2018-01-14T00:55:19.248Z,98.4
2018-01-14T00:56:20.653Z,98.8
2018-01-14T00:57:22.170Z,98.7
2018-01-14T00:58:23.565Z,99.2
2018-01-14T00:59:24.971Z,98.8
2018-01-14T01:00:26.501Z,98.6
2018-01-14T01:01:27.903Z,98.8
2018-01-14T01:02:29.309Z,99.1
2018-01-14T01:03:31.014Z,99.1
2018-01-14T01:04:32.417Z,99.5
2018-01-14T01:05:33.815Z,99.5
2018-01-14T01:06:35.331Z,99.4
2018-01-14T01:07:36.737Z,99.0
2018-01-14T01:08:38.418Z,99.0
2018-01-14T01:09:39.822Z,99.2
2018-01-14T01:10:41.233Z,99.2
2018-01-14T01:11:42.945Z,99.5
2018-01-14T01:12:44.347Z,99.2
2018-01-14T01:13:45.749Z,99.7
2018-01-14T01:14:47.265Z,99.5
2018-01-14T01:15:48.666Z,100.0
2018-01-14T01:16:50.065Z,99.4
2018-01-14T01:17:51.587Z,99.8
2018-01-14T01:18:52.986Z,100.0
2018-01-14T01:19:54.674Z,100.0
2018-01-14T01:20:56.077Z,100.0
2018-01-14T01:21:57.763Z,100.0
2018-01-14T01:22:59.181Z,100.0
2018-01-14T01:24:00.845Z,100.0
2018-01-14T01:25:02.254Z,100.0
2018-01-14T01:26:03.930Z,100.0
2018-01-14T01:27:05.334Z,100.0
2018-01-14T01:28:07.016Z,100.0
2018-01-14T01:29:08.439Z,100.0
2018-01-14T01:30:10.102Z,100.0
2018-01-14T01:31:11.507Z,100.0
2018-01-14T01:32:12.916Z,100.0
2018-01-14T01:33:14.634Z,100.0
2018-01-14T01:34:16.036Z,100.0
2018-01-14T01:35:17.442Z,100.0
2018-01-14T01:36:18.949Z,100.0
2018-01-14T01:37:20.363Z,100.0
2018-01-14T01:38:22.033Z,100.0
2018-01-14T01:39:23.439Z,100.0
2018-01-14T01:40:25.119Z,100.0
2018-01-14T01:41:26.517Z,99.7
2018-01-14T01:42:28.203Z,99.6
2018-01-14T01:43:29.605Z,99.2
2018-01-14T01:44:31.290Z,99.3
2018-01-14T01:45:32.695Z,99.7
2018-01-14T01:46:34.097Z,99.7
2018-01-14T01:47:35.613Z,99.6
2018-01-14T01:48:37.015Z,100.0
2018-01-14T01:49:38.421Z,100.0
2018-01-14T01:50:39.936Z,100.0
2018-01-14T01:51:41.339Z,100.0
2018-01-14T01:52:43.019Z,100.0
2018-01-14T01:53:44.422Z,100.0
2018-01-14T01:54:46.104Z,100.0
2018-01-14T01:55:47.506Z,100.0
2018-01-14T01:56:49.194Z,100.0
2018-01-14T01:57:50.598Z,100.0
2018-01-14T01:58:52.276Z,100.0
2018-01-14T01:59:53.682Z,100.0
2018-01-14T02:00:55.088Z,100.0
2018-01-14T02:01:56.595Z,100.0
2018-01-14T02:02:57.996Z,100.0
2018-01-14T02:03:59.404Z,100.0
2018-01-14T02:05:00.919Z,100.0
2018-01-14T02:06:02.321Z,100.0
2018-01-14T02:07:03.727Z,100.0
2018-01-14T02:08:05.243Z,100.0
2018-01-14T02:09:06.645Z,100.0
2018-01-14T02:10:08.325Z,100.0
2018-01-14T02:11:09.732Z,100.0
2018-01-14T02:12:11.411Z,100.0
2018-01-14T02:13:12.813Z,100.0
2018-01-14T02:14:14.495Z,100.0
2018-01-14T02:15:15.901Z,100.0
2018-01-14T02:16:17.308Z,100.0
2018-01-14T02:17:18.816Z,100.0
2018-01-14T02:18:20.222Z,100.0
2018-01-14T02:19:21.635Z,100.0
2018-01-14T02:20:23.138Z,100.0
2018-01-14T02:21:24.544Z,100.0
2018-01-14T02:22:25.956Z,100.0
2018-01-14T02:23:27.666Z,100.0
2018-01-14T02:24:29.068Z,100.0
2018-01-14T02:25:30.469Z,100.0
2018-01-14T02:26:31.987Z,100.0
2018-01-14T02:27:33.393Z,100.0
2018-01-14T02:28:34.797Z,100.0
2018-01-14T02:29:36.308Z,100.0
2018-01-14T02:30:37.713Z,100.0
2018-01-14T02:31:39.121Z,100.0
2018-01-14T02:32:40.628Z,100.0
2018-01-14T02:33:42.031Z,100.0
2018-01-14T02:34:43.436Z,100.0
2018-01-14T02:35:44.946Z,100.0
2018-01-14T02:36:46.352Z,100.0
2018-01-14T02:37:47.756Z,100.0
2018-01-14T02:38:49.271Z,100.0
2018-01-14T02:39:50.675Z,100.0
2018-01-14T02:40:52.356Z,100.0
2018-01-14T02:41:53.760Z,100.0
2018-01-14T02:42:55.166Z,100.0
2018-01-14T02:43:56.677Z,100.0
2018-01-14T02:44:58.087Z,100.0
2018-01-14T02:45:59.490Z,100.0
2018-01-14T02:47:00.998Z,100.0
2018-01-14T02:48:02.399Z,100.0
2018-01-14T02:49:04.081Z,100.0
2018-01-14T02:50:05.485Z,100.0
2018-01-14T02:51:07.172Z,100.0
2018-01-14T02:52:08.573Z,100.0
2018-01-14T02:53:10.252Z,100.0
2018-01-14T02:54:11.658Z,100.0
2018-01-14T02:55:13.342Z,100.0
2018-01-14T02:56:14.740Z,100.0
2018-01-14T02:57:16.425Z,100.0
2018-01-14T02:58:17.832Z,100.0
2018-01-14T02:59:19.511Z,100.0
2018-01-14T03:00:20.914Z,100.0
2018-01-14T03:01:22.596Z,100.0
2018-01-14T03:02:24.002Z,100.0
2018-01-14T03:03:25.405Z,100.0
2018-01-14T03:04:26.917Z,100.0
2018-01-14T03:05:28.327Z,100.0
2018-01-14T03:06:29.723Z,100.0
2018-01-14T03:07:31.238Z,100.0
2018-01-14T03:08:32.643Z,100.0
2018-01-14T03:09:34.323Z,100.0
2018-01-14T03:10:35.727Z,100.0
2018-01-14T03:11:37.410Z,100.0
2018-01-14T03:12:38.816Z,100.0
2018-01-14T03:13:40.496Z,100.0
2018-01-14T03:14:41.901Z,100.0
2018-01-14T03:15:43.582Z,100.0
2018-01-14T03:16:44.983Z,100.0
2018-01-14T03:17:46.669Z,100.0
2018-01-14T03:18:48.074Z,100.0
2018-01-14T03:19:49.752Z,100.0
2018-01-14T03:20:51.157Z,100.0
2018-01-14T03:21:52.838Z,100.0
2018-01-14T03:22:54.241Z,100.0
2018-01-14T03:23:55.923Z,100.0
2018-01-14T03:24:57.332Z,100.0
2018-01-14T03:25:59.215Z,100.0
2018-01-14T03:27:00.620Z,100.0
2018-01-14T03:28:02.299Z,100.0
2018-01-14T03:29:03.700Z,100.0
2018-01-14T03:30:05.385Z,100.0
2018-01-14T03:31:06.859Z,100.0
2018-01-14T03:32:09.291Z,100.0
2018-01-14T03:33:10.692Z,100.0
2018-01-14T03:34:12.376Z,100.0
2018-01-14T03:35:13.781Z,100.0
2018-01-14T03:36:15.460Z,100.0
2018-01-14T03:37:16.868Z,100.0
2018-01-14T03:38:18.546Z,100.0
2018-01-14T03:39:19.951Z,100.0
2018-01-14T03:40:21.634Z,100.0
2018-01-14T03:41:23.038Z,100.0
2018-01-14T03:42:24.717Z,100.0
2018-01-14T03:43:26.121Z,100.0
2018-01-14T03:44:27.804Z,100.0
2018-01-14T03:45:29.210Z,100.0
2018-01-14T03:46:30.893Z,100.0
2018-01-14T03:47:32.293Z,100.0
2018-01-14T03:48:33.697Z,100.0
2018-01-14T03:49:35.210Z,100.0
2018-01-14T03:50:36.657Z,100.0
2018-01-14T03:51:38.018Z,100.0
2018-01-14T03:52:39.532Z,100.0
2018-01-14T03:53:40.933Z,100.0
2018-01-14T03:54:42.615Z,100.0
2018-01-14T03:55:44.022Z,100.0
2018-01-14T03:56:45.703Z,100.0
2018-01-14T03:57:47.106Z,100.0
2018-01-14T03:58:48.505Z,100.0
2018-01-14T03:59:50.025Z,100.0
2018-01-14T04:00:51.437Z,100.0
2018-01-14T04:01:52.845Z,100.0
2018-01-14T04:02:54.347Z,100.0
2018-01-14T04:03:55.751Z,100.0
2018-01-14T04:04:57.161Z,100.0
2018-01-14T04:05:58.666Z,100.0
2018-01-14T04:07:00.069Z,100.0
2018-01-14T04:08:01.469Z,100.0
2018-01-14T04:09:02.987Z,100.0
2018-01-14T04:10:04.395Z,100.0
2018-01-14T04:11:05.808Z,100.0
2018-01-14T04:12:07.310Z,100.0
2018-01-14T04:13:08.713Z,100.0
2018-01-14T04:14:10.116Z,100.0
2018-01-14T04:15:11.629Z,100.0
2018-01-14T04:16:13.032Z,100.0
2018-01-14T04:17:14.435Z,100.0
2018-01-14T04:18:15.952Z,100.0
2018-01-14T04:19:17.356Z,100.0
2018-01-14T04:20:18.761Z,100.0
2018-01-14T04:21:20.272Z,100.0
2018-01-14T04:22:21.676Z,100.0
2018-01-14T04:23:23.079Z,100.0
2018-01-14T04:24:24.593Z,100.0
2018-01-14T04:25:25.998Z,100.0
2018-01-14T04:26:27.400Z,100.0
2018-01-14T04:27:28.921Z,100.0
2018-01-14T04:28:30.318Z,100.0
2018-01-14T04:29:32.000Z,100.0
2018-01-14T04:30:33.406Z,100.0
2018-01-14T04:31:35.086Z,100.0
2018-01-14T04:32:36.489Z,100.0
2018-01-14T04:33:37.893Z,100.0
2018-01-14T04:34:39.406Z,100.0
2018-01-14T04:35:40.809Z,100.0
2018-01-14T04:36:42.212Z,100.0
2018-01-14T04:37:43.728Z,100.0
2018-01-14T04:38:45.133Z,100.0
2018-01-14T04:39:46.815Z,100.0
2018-01-14T04:40:48.215Z,100.0
2018-01-14T04:41:49.901Z,100.0
2018-01-14T04:42:51.303Z,100.0
2018-01-14T04:43:52.993Z,100.0
2018-01-14T04:44:54.393Z,100.0
2018-01-14T04:45:55.802Z,100.0
2018-01-14T04:46:57.306Z,100.0
2018-01-14T04:47:58.712Z,100.0
2018-01-14T04:49:00.398Z,100.0
2018-01-14T04:50:01.796Z,100.0
2018-01-14T04:51:03.478Z,100.0
2018-01-14T04:52:04.885Z,100.0
2018-01-14T04:53:06.288Z,100.0
2018-01-14T04:54:07.799Z,100.0
2018-01-14T04:55:09.202Z,100.0
2018-01-14T04:56:10.601Z,100.0
2018-01-14T04:57:12.121Z,100.0
2018-01-14T04:58:13.524Z,100.0
2018-01-14T04:59:14.927Z,100.0
2018-01-14T05:00:16.442Z,100.0
2018-01-14T05:01:17.850Z,100.0
2018-01-14T05:02:19.523Z,100.0
2018-01-14T05:03:20.926Z,100.0
2018-01-14T05:04:22.611Z,100.0
2018-01-14T05:05:24.017Z,100.0
2018-01-14T05:06:25.695Z,100.0
2018-01-14T05:07:27.099Z,100.0
2018-01-14T05:08:28.507Z,100.0
2018-01-14T05:09:30.025Z,100.0
2018-01-14T05:10:31.428Z,100.0
2018-01-14T05:11:32.830Z,100.0
2018-01-14T05:12:34.340Z,100.0
2018-01-14T05:13:35.750Z,100.0
2018-01-14T05:14:37.153Z,100.0
2018-01-14T05:15:38.663Z,100.0
2018-01-14T05:16:40.063Z,100.0
2018-01-14T05:17:41.746Z,100.0
2018-01-14T05:18:43.150Z,100.0
2018-01-14T05:19:44.835Z,100.0
2018-01-14T05:20:46.237Z,100.0
2018-01-14T05:21:47.915Z,100.0
2018-01-14T05:22:49.320Z,100.0
2018-01-14T05:23:51.003Z,100.0
2018-01-14T05:24:52.407Z,100.0
2018-01-14T05:25:54.088Z,100.0
2018-01-14T05:26:55.526Z,100.0
2018-01-14T05:27:57.175Z,100.0
2018-01-14T05:28:58.583Z,100.0
2018-01-14T05:30:00.265Z,100.0
2018-01-14T05:31:01.660Z,100.0
2018-01-14T05:32:03.345Z,100.0
2018-01-14T05:33:04.749Z,100.0
2018-01-14T05:34:06.159Z,100.0
2018-01-14T05:35:07.666Z,100.0
2018-01-14T05:36:09.072Z,100.0
2018-01-14T05:37:10.478Z,100.0
2018-01-14T05:38:11.988Z,100.0
2018-01-14T05:39:13.391Z,100.0
2018-01-14T05:40:14.803Z,100.0
2018-01-14T05:41:16.310Z,100.0
2018-01-14T05:42:17.713Z,100.0
2018-01-14T05:43:19.115Z,100.0
2018-01-14T05:44:20.630Z,100.0
2018-01-14T05:45:22.031Z,100.0
2018-01-14T05:46:23.432Z,100.0
2018-01-14T05:47:24.951Z,100.0
2018-01-14T05:48:26.354Z,100.0
2018-01-14T05:49:27.767Z,100.0
2018-01-14T05:50:29.274Z,100.0
2018-01-14T05:51:30.680Z,100.0
2018-01-14T05:52:32.358Z,100.0
2018-01-14T05:53:33.763Z,100.0
2018-01-14T05:54:35.443Z,100.0
2018-01-14T05:55:36.852Z,100.0
2018-01-14T05:56:38.529Z,100.0
2018-01-14T05:57:39.932Z,100.0
2018-01-14T05:58:41.613Z,100.0
2018-01-14T05:59:43.017Z,100.0
2018-01-14T06:00:44.419Z,100.0
2018-01-14T06:01:45.936Z,100.0
2018-01-14T06:02:47.339Z,100.0
2018-01-14T06:03:48.744Z,100.0
2018-01-14T06:04:50.256Z,100.0
2018-01-14T06:05:51.661Z,100.0
2018-01-14T06:06:53.065Z,100.0
2018-01-14T06:07:54.578Z,100.0
2018-01-14T06:08:55.980Z,100.0
2018-01-14T06:09:57.383Z,100.0
2018-01-14T06:10:58.903Z,100.0
2018-01-14T06:12:00.309Z,100.0
2018-01-14T06:13:01.715Z,100.0
2018-01-14T06:14:03.220Z,100.0
2018-01-14T06:15:04.623Z,100.0
2018-01-14T06:16:06.104Z,100.0
2018-01-14T06:17:07.505Z,100.0
2018-01-14T06:18:09.187Z,100.0
2018-01-14T06:19:10.596Z,100.0
2018-01-14T06:20:12.273Z,100.0
2018-01-14T06:21:13.713Z,100.0
2018-01-14T06:22:15.357Z,100.0
2018-01-14T06:23:16.764Z,100.0
2018-01-14T06:24:18.165Z,100.0
2018-01-14T06:25:19.679Z,100.0
2018-01-14T06:26:21.094Z,100.0
2018-01-14T06:27:22.499Z,100.0
2018-01-14T06:28:24.000Z,100.0
2018-01-14T06:29:25.409Z,100.0
2018-01-14T06:30:26.821Z,100.0
2018-01-14T06:31:28.320Z,100.0
2018-01-14T06:32:29.725Z,100.0
2018-01-14T06:33:31.200Z,100.0
2018-01-14T06:34:32.610Z,100.0
2018-01-14T06:35:34.011Z,100.0
2018-01-14T06:36:35.524Z,100.0
2018-01-14T06:37:36.928Z,100.0
2018-01-14T06:38:38.330Z,100.0
2018-01-14T06:39:39.851Z,100.0
2018-01-14T06:40:41.254Z,100.0
2018-01-14T06:41:42.929Z,100.0
2018-01-14T06:42:44.335Z,100.0
2018-01-14T06:43:45.811Z,100.0
2018-01-14T06:44:47.220Z,100.0
2018-01-14T06:45:48.692Z,100.0
2018-01-14T06:46:50.114Z,100.0
2018-01-14T06:47:51.780Z,100.0
2018-01-14T06:48:53.182Z,100.0
2018-01-14T06:49:54.657Z,100.0
2018-01-14T06:50:56.071Z,100.0
2018-01-14T06:51:57.742Z,100.0
2018-01-14T06:52:59.146Z,100.0
2018-01-14T06:54:00.627Z,100.0
2018-01-14T06:55:02.028Z,100.0
2018-01-14T06:56:03.437Z,100.0
2018-01-14T06:57:04.955Z,100.0
2018-01-14T06:58:06.347Z,100.0
2018-01-14T06:59:07.754Z,100.0
2018-01-14T07:00:09.268Z,100.0
2018-01-14T07:01:10.668Z,100.0
2018-01-14T07:02:12.147Z,100.0
2018-01-14T07:03:13.554Z,100.0
2018-01-14T07:04:15.027Z,100.0
2018-01-14T07:05:16.432Z,100.0
2018-01-14T07:06:17.836Z,100.0
2018-01-14T07:07:19.349Z,100.0
2018-01-14T07:08:20.753Z,100.0
2018-01-14T07:09:22.175Z,100.0
2018-01-14T07:10:23.582Z,100.0
2018-01-14T07:11:25.110Z,100.0
2018-01-14T07:12:26.513Z,100.0
2018-01-14T07:13:27.997Z,100.0
2018-01-14T07:14:29.433Z,100.0
2018-01-14T07:15:31.078Z,99.7
2018-01-14T07:16:32.483Z,100.0
2018-01-14T07:17:34.163Z,100.0
2018-01-14T07:18:35.564Z,99.5
2018-01-14T07:19:37.042Z,99.5
2018-01-14T07:20:38.446Z,100.0
2018-01-14T07:21:39.923Z,100.0
2018-01-14T07:22:41.327Z,99.4
2018-01-14T07:23:42.803Z,98.4
2018-01-14T07:24:44.295Z,97.7
2018-01-14T07:25:45.892Z,97.9
2018-01-14T07:26:47.308Z,98.8
2018-01-14T07:27:49.849Z,97.9
2018-01-14T07:28:51.260Z,97.4
2018-01-14T07:29:52.881Z,97.4
2018-01-14T07:30:54.287Z,97.3
2018-01-14T07:31:55.693Z,96.4
2018-01-14T07:32:57.201Z,95.2
2018-01-14T07:33:59.016Z,95.5
2018-01-14T07:35:00.302Z,94.6
2018-01-14T07:36:01.932Z,94.5
2018-01-14T07:37:03.332Z,94.3
2018-01-14T07:38:04.814Z,94.8
2018-01-14T07:39:06.220Z,95.2
2018-01-14T07:40:07.699Z,95.0
2018-01-14T07:41:09.101Z,95.0
2018-01-14T07:42:10.508Z,95.0
2018-01-14T07:43:12.021Z,94.3
2018-01-14T07:44:13.421Z,94.5
2018-01-14T07:45:14.826Z,94.5
2018-01-14T07:46:16.339Z,93.6
2018-01-14T07:47:17.744Z,93.9
2018-01-14T07:48:19.218Z,93.5
2018-01-14T07:49:20.625Z,93.5
2018-01-14T07:50:22.099Z,93.6
2018-01-14T07:51:23.506Z,93.9
2018-01-14T07:52:24.913Z,93.8
2018-01-14T07:53:26.420Z,93.5
2018-01-14T07:54:27.827Z,92.6
2018-01-14T07:55:29.234Z,92.6
2018-01-14T07:56:30.751Z,92.6
2018-01-14T07:57:32.158Z,93.6
2018-01-14T07:58:33.567Z,92.5
2018-01-14T07:59:35.065Z,92.8
2018-01-14T08:00:36.471Z,92.8
2018-01-14T08:01:37.876Z,92.4
2018-01-14T08:02:39.385Z,92.4
2018-01-14T08:03:40.838Z,92.5
2018-01-14T08:04:42.271Z,92.7
2018-01-14T08:05:43.676Z,92.5
2018-01-14T08:06:45.146Z,92.4
2018-01-14T08:07:46.554Z,92.9
2018-01-14T08:08:48.034Z,92.3
2018-01-14T08:09:49.439Z,91.9
2018-01-14T08:10:50.844Z,91.9
2018-01-14T08:11:52.349Z,91.8
2018-01-14T08:12:53.759Z,91.6
2018-01-14T08:13:55.166Z,92.1
2018-01-14T08:14:56.671Z,91.9
2018-01-14T08:15:58.076Z,91.9
2018-01-14T08:16:59.484Z,91.4
2018-01-14T08:18:00.992Z,91.1
2018-01-14T08:19:02.401Z,91.8
2018-01-14T08:20:03.873Z,91.9
2018-01-14T08:21:05.282Z,91.9
2018-01-14T08:22:06.724Z,91.7
2018-01-14T08:23:08.193Z,91.3
2018-01-14T08:24:09.597Z,92.3
2018-01-14T08:25:13.140Z,91.9
2018-01-14T08:26:15.300Z,91.8
2018-01-14T08:27:16.706Z,92.9
2018-01-14T08:28:18.646Z,92.5
2018-01-14T08:29:20.523Z,92.6
2018-01-14T08:30:21.962Z,92.7
2018-01-14T08:31:23.368Z,91.5
2018-01-14T08:32:24.772Z,91.3
2018-01-14T08:33:26.285Z,91.3
2018-01-14T08:34:28.219Z,90.4
2018-01-14T08:35:29.633Z,90.7
2018-01-14T08:36:31.228Z,91.5
2018-01-14T08:37:32.619Z,91.7
2018-01-14T08:38:34.499Z,91.3
2018-01-14T08:39:36.721Z,90.9
2018-01-14T08:40:38.090Z,91.3
2018-01-14T08:41:40.054Z,90.5
2018-01-14T08:42:41.976Z,90.6
2018-01-14T08:43:43.382Z,90.8
2018-01-14T08:44:45.156Z,90.5
2018-01-14T08:45:47.183Z,90.9
2018-01-14T08:46:48.774Z,90.3
2018-01-14T08:47:51.162Z,90.3
2018-01-14T08:48:52.637Z,91.0
2018-01-14T08:49:54.070Z,90.7
2018-01-14T08:50:55.699Z,90.2
2018-01-14T08:51:57.592Z,90.3
2018-01-14T08:52:59.809Z,89.8
2018-01-14T08:54:01.194Z,90.1
2018-01-14T08:55:02.715Z,90.4
2018-01-14T08:56:04.259Z,90.1
2018-01-14T08:57:05.845Z,89.7
2018-01-14T08:58:07.660Z,89.3
2018-01-14T08:59:09.810Z,89.3
2018-01-14T09:00:11.245Z,89.3
2018-01-14T09:01:12.757Z,89.3
2018-01-14T09:02:15.807Z,89.3
2018-01-14T09:03:17.650Z,89.5
2018-01-14T09:04:19.097Z,89.5
2018-01-14T09:05:20.895Z,89.4
2018-01-14T09:06:22.341Z,89.6
2018-01-14T09:07:23.790Z,88.4
2018-01-14T09:08:25.309Z,88.5
2018-01-14T09:09:26.738Z,87.9
2018-01-14T09:10:28.186Z,88.0
2018-01-14T09:11:29.855Z,87.9
2018-01-14T09:12:31.265Z,87.8
2018-01-14T09:13:33.127Z,87.6
2018-01-14T09:14:34.764Z,87.1
2018-01-14T09:15:36.409Z,87.1
2018-01-14T09:16:38.105Z,87.5
2018-01-14T09:17:39.563Z,87.5
2018-01-14T09:18:41.149Z,87.7
2018-01-14T09:19:42.574Z,87.2
2018-01-14T09:20:44.252Z,86.6
2018-01-14T09:21:45.866Z,86.6
2018-01-14T09:22:47.338Z,86.7
2018-01-14T09:23:49.253Z,86.0
2018-01-14T09:24:50.814Z,86.1
2018-01-14T09:25:52.237Z,85.8
2018-01-14T09:26:53.656Z,86.1
2018-01-14T09:27:55.139Z,85.9
2018-01-14T09:28:56.556Z,85.5
2018-01-14T09:29:59.205Z,85.9
2018-01-14T09:31:00.703Z,85.8
2018-01-14T09:32:02.549Z,85.0
2018-01-14T09:33:03.982Z,85.0
2018-01-14T09:34:05.578Z,85.2
2018-01-14T09:35:07.066Z,84.6
2018-01-14T09:36:09.710Z,84.7
2018-01-14T09:37:11.240Z,84.7
2018-01-14T09:38:13.080Z,84.8
2018-01-14T09:39:14.491Z,83.9
2018-01-14T09:40:16.107Z,83.6
2018-01-14T09:41:17.566Z,83.9
2018-01-14T09:42:18.992Z,84.1
2018-01-14T09:43:21.043Z,83.5
2018-01-14T09:44:22.466Z,83.6
2018-01-14T09:45:23.911Z,83.4
2018-01-14T09:46:26.295Z,83.6
2018-01-14T09:47:27.794Z,83.4
2018-01-14T09:48:29.838Z,83.3
2018-01-14T09:49:31.435Z,83.3
2018-01-14T09:50:33.073Z,82.9
2018-01-14T09:51:34.719Z,83.5
2018-01-14T09:52:36.133Z,84.0
2018-01-14T09:53:37.565Z,83.2
2018-01-14T09:54:39.137Z,83.4
2018-01-14T09:55:41.546Z,82.5
2018-01-14T09:56:42.963Z,82.7
2018-01-14T09:57:44.695Z,82.4
2018-01-14T09:58:46.255Z,82.5
2018-01-14T09:59:47.779Z,82.0
2018-01-14T10:00:50.431Z,81.5
2018-01-14T10:01:51.729Z,80.5
2018-01-14T10:02:53.170Z,80.5
2018-01-14T10:03:54.856Z,80.7
2018-01-14T10:04:56.351Z,80.8
2018-01-14T10:05:58.160Z,80.4
2018-01-14T10:06:59.620Z,79.9
2018-01-14T10:08:01.076Z,79.4
2018-01-14T10:09:02.733Z,79.1
2018-01-14T10:10:04.214Z,79.2
2018-01-14T10:11:05.935Z,78.7
2018-01-14T10:12:08.293Z,79.0
2018-01-14T10:13:09.984Z,78.4
2018-01-14T10:14:11.735Z,77.7
2018-01-14T10:15:13.329Z,78.2
2018-01-14T10:16:15.860Z,77.7
2018-01-14T10:17:17.918Z,77.9
2018-01-14T10:18:20.061Z,78.1
2018-01-14T10:19:21.489Z,78.4
2018-01-14T10:20:23.996Z,77.9
2018-01-14T10:21:26.022Z,76.9
2018-01-14T10:22:27.729Z,76.1
2018-01-14T10:23:29.192Z,76.4
2018-01-14T10:24:30.697Z,76.2
2018-01-14T10:25:32.283Z,75.3
2018-01-14T10:26:34.041Z,75.3
2018-01-14T10:27:35.601Z,75.0
2018-01-14T10:28:37.272Z,75.4
2018-01-14T10:29:38.926Z,75.4
2018-01-14T10:30:40.470Z,75.1
2018-01-14T10:31:41.964Z,75.4
2018-01-14T10:32:44.161Z,75.5
2018-01-14T10:33:45.637Z,75.6
2018-01-14T10:34:47.262Z,76.0
2018-01-14T10:35:48.827Z,75.4
2018-01-14T10:36:50.342Z,75.4
2018-01-14T10:37:51.823Z,74.3
2018-01-14T10:38:53.457Z,73.5
2018-01-14T10:39:54.922Z,73.3
2018-01-14T10:40:56.518Z,73.0
2018-01-14T10:41:57.993Z,73.6
2018-01-14T10:42:59.578Z,73.6
2018-01-14T10:44:01.063Z,72.7
2018-01-14T10:45:02.683Z,72.8
2018-01-14T10:46:04.143Z,71.9
2018-01-14T10:47:05.765Z,70.2
2018-01-14T10:48:07.676Z,69.7
2018-01-14T10:49:09.286Z,68.6
2018-01-14T10:50:10.916Z,68.9
2018-01-14T10:51:12.537Z,67.9
2018-01-14T10:52:13.985Z,68.8
2018-01-14T10:53:15.635Z,68.1
2018-01-14T10:54:19.160Z,68.3
2018-01-14T10:55:20.949Z,69.3
2018-01-14T10:56:22.416Z,69.5
2018-01-14T10:57:24.353Z,69.3
2018-01-14T10:58:26.371Z,68.9
2018-01-14T10:59:28.480Z,69.3
2018-01-14T11:00:29.923Z,69.4
2018-01-14T11:01:31.385Z,69.6
2018-01-14T11:02:32.815Z,69.9
2018-01-14T11:03:34.701Z,69.7
2018-01-14T11:04:36.666Z,69.3
2018-01-14T11:05:37.977Z,69.4
2018-01-14T11:06:39.883Z,70.0
2018-01-14T11:07:41.760Z,70.0
2018-01-14T11:08:44.076Z,70.5
2018-01-14T11:09:46.473Z,70.5
2018-01-14T11:10:49.040Z,70.3
2018-01-14T11:11:51.595Z,69.9
2018-01-14T11:12:53.046Z,71.7
2018-01-14T11:13:54.606Z,71.4
2018-01-14T11:14:56.033Z,70.8
2018-01-14T11:15:57.479Z,71.0
2018-01-14T11:16:59.496Z,70.5
2018-01-14T11:18:01.102Z,70.6
2018-01-14T11:19:02.546Z,70.8
2018-01-14T11:20:05.270Z,70.4
2018-01-14T11:21:07.963Z,70.0
2018-01-14T11:22:10.616Z,70.6
2018-01-14T11:23:14.532Z,70.5
2018-01-14T11:24:15.968Z,70.7
2018-01-14T11:25:18.930Z,70.8
2018-01-14T11:26:22.251Z,70.7
2018-01-14T11:27:24.909Z,70.6
2018-01-14T11:28:27.749Z,71.5
2018-01-14T11:29:30.438Z,72.4
2018-01-14T11:30:32.488Z,72.5
2018-01-14T11:31:34.345Z,72.3
2018-01-14T11:32:37.455Z,72.5
2018-01-14T11:33:40.658Z,73.1
2018-01-14T11:34:43.644Z,73.6
2018-01-14T11:35:45.134Z,73.6
2018-01-14T11:36:46.639Z,74.2
2018-01-14T11:37:48.108Z,75.0
2018-01-14T11:38:49.710Z,75.7
2018-01-14T11:39:51.200Z,76.5
2018-01-14T11:40:52.817Z,76.1
2018-01-14T11:41:54.781Z,76.1
2018-01-14T11:42:57.293Z,76.6
2018-01-14T11:43:58.797Z,76.6
2018-01-14T11:45:00.293Z,76.6
2018-01-14T11:46:01.856Z,76.4
2018-01-14T11:47:04.000Z,75.3
2018-01-14T11:48:05.753Z,75.7
2018-01-14T11:49:07.430Z,76.2
2018-01-14T11:50:08.908Z,75.8
2018-01-14T11:51:10.518Z,76.4
2018-01-14T11:52:12.592Z,76.6
2018-01-14T11:53:14.621Z,76.2
2018-01-14T11:54:16.113Z,75.8
2018-01-14T11:55:17.560Z,75.9
2018-01-14T11:56:19.206Z,76.5
2018-01-14T11:57:20.644Z,76.8
2018-01-14T12:00:23.455Z,78.0
2018-01-14T12:01:24.847Z,78.3
2018-01-14T12:02:26.253Z,78.4
2018-01-14T12:03:27.709Z,78.2
2018-01-14T12:04:29.121Z,77.4
2018-01-14T12:05:30.590Z,78.0
2018-01-14T12:06:32.079Z,78.4
2018-01-14T12:07:33.692Z,78.3
2018-01-14T12:08:35.096Z,77.8
2018-01-14T12:09:36.503Z,78.0
2018-01-14T12:10:37.996Z,78.0
2018-01-14T12:11:39.408Z,78.2
2018-01-14T12:12:40.818Z,77.8
2018-01-14T12:13:42.319Z,77.4
2018-01-14T12:14:43.734Z,77.0
2018-01-14T12:15:45.139Z,77.3
2018-01-14T12:16:46.639Z,77.4
2018-01-14T12:17:48.046Z,77.3
2018-01-14T12:18:49.456Z,77.8
2018-01-14T12:19:50.958Z,76.8
2018-01-14T12:20:52.368Z,76.9
2018-01-14T12:21:53.841Z,77.2
2018-01-14T12:22:55.247Z,77.9
2018-01-14T12:23:56.722Z,77.9
2018-01-14T12:24:58.130Z,78.4
2018-01-14T12:25:59.705Z,77.5
2018-01-14T12:27:01.114Z,78.1
2018-01-14T12:28:02.686Z,78.2
2018-01-14T12:29:04.468Z,78.4
2018-01-14T12:30:05.873Z,78.4
2018-01-14T12:31:07.416Z,79.0
2018-01-14T12:32:08.835Z,79.6
2018-01-14T12:33:10.235Z,79.2
2018-01-14T12:34:11.740Z,79.1
2018-01-14T12:35:20.887Z,79.3
2018-01-14T12:36:26.709Z,79.5
2018-01-14T12:37:38.815Z,80.3
2018-01-14T12:38:40.416Z,80.3
2018-01-14T12:39:41.817Z,80.7
2018-01-14T12:40:45.946Z,81.0
2018-01-14T12:41:47.379Z,81.5
2018-01-14T12:42:48.863Z,81.5
2018-01-14T12:43:50.272Z,80.4
2018-01-14T12:44:52.211Z,79.8
2018-01-14T12:45:54.164Z,80.4
2018-01-14T12:46:55.854Z,80.5
2018-01-14T12:47:57.249Z,80.6
2018-01-14T12:48:59.651Z,80.2
2018-01-14T12:50:01.046Z,80.4
2018-01-14T12:51:04.548Z,80.6
2018-01-14T12:52:05.394Z,81.0
2018-01-14T12:53:07.988Z,81.5
2018-01-14T12:54:10.348Z,81.4
2018-01-14T12:55:12.632Z,81.0
2018-01-14T12:56:15.780Z,81.7
2018-01-14T12:57:17.200Z,81.5
2018-01-14T12:58:18.612Z,80.7
2018-01-14T12:59:20.888Z,80.1
2018-01-14T13:00:24.248Z,78.9
2018-01-14T13:01:26.386Z,79.0
2018-01-14T13:02:28.938Z,79.3
2018-01-14T13:03:31.557Z,79.2
2018-01-14T13:04:32.985Z,80.3
2018-01-14T13:05:34.481Z,80.4
2018-01-14T13:06:37.709Z,80.7
2018-01-14T13:07:39.171Z,80.7
2018-01-14T13:08:40.644Z,80.5
2018-01-14T13:09:42.064Z,80.4
2018-01-14T13:10:43.471Z,80.6
2018-01-14T13:11:44.963Z,80.6
2018-01-14T13:12:46.392Z,80.1
2018-01-14T13:13:47.804Z,80.5
2018-01-14T13:14:49.283Z,80.7
2018-01-14T13:15:50.746Z,80.7
2018-01-14T13:16:52.152Z,80.7
2018-01-14T13:17:53.605Z,80.6
2018-01-14T13:18:55.012Z,80.7
2018-01-14T13:19:56.424Z,80.8
2018-01-14T13:20:57.926Z,80.4
2018-01-14T13:21:59.331Z,80.3
2018-01-14T13:23:00.740Z,80.2
2018-01-14T13:24:02.250Z,80.7
2018-01-14T13:25:03.657Z,81.9
2018-01-14T13:26:05.067Z,82.0
2018-01-14T13:27:06.568Z,82.2
2018-01-14T13:28:07.974Z,81.8
2018-01-14T13:29:09.450Z,82.2
2018-01-14T13:30:10.858Z,82.3